Time;durP1;ratioP1;P1;durP2;ratioP2;P2;SDS_P1;SDS_P2;PMS_P1;PMS_P2;Temp;Humidity;BMP_temperature;BMP_pressure;BME280_temperature;BME280_humidity;BME280_pressure;Samples;Min_cycle;Max_cycle;Signal;HPM_P1;HPM_P2
2021/07/08 00:01:35;;;;;;;7.60;2.80;;;22.50;52.60;;;;;;4997697;28;20466;-88
2021/07/08 00:04:02;;;;;;;8.03;3.03;;;22.50;53.10;;;;;;4997534;28;20916;-88
2021/07/08 00:06:31;;;;;;;4.70;2.83;;;22.50;53.30;;;;;;4997031;28;20975;-88
2021/07/08 00:08:58;;;;;;;7.03;2.67;;;22.50;53.80;;;;;;5011898;28;20840;-88
2021/07/08 00:11:25;;;;;;;14.60;5.03;;;22.60;53.10;;;;;;5002397;28;20963;-88
2021/07/08 00:13:53;;;;;;;15.53;6.13;;;22.50;53.70;;;;;;4997043;28;20488;-88
2021/07/08 00:16:20;;;;;;;7.13;4.40;;;22.50;53.90;;;;;;4997256;28;20537;-88
2021/07/08 00:18:47;;;;;;;26.10;6.20;;;22.40;53.80;;;;;;5000168;28;20550;-87
2021/07/08 00:21:14;;;;;;;13.27;6.20;;;22.30;54.10;;;;;;4997596;28;20459;-87
2021/07/08 00:23:42;;;;;;;5.90;3.50;;;22.30;54.50;;;;;;4996873;28;20486;-87
2021/07/08 00:26:09;;;;;;;17.00;4.63;;;22.30;53.80;;;;;;4997268;28;20455;-88
2021/07/08 00:28:36;;;;;;;12.67;4.80;;;22.40;54.10;;;;;;5008825;28;20860;-87
2021/07/08 00:31:03;;;;;;;10.50;5.00;;;22.30;54.30;;;;;;5004835;28;20608;-87
2021/07/08 00:33:30;;;;;;;14.53;5.00;;;22.40;54.30;;;;;;5010063;28;20500;-87
2021/07/08 00:35:57;;;;;;;11.87;5.20;;;22.40;54.30;;;;;;5019100;28;20482;-87
2021/07/08 00:38:24;;;;;;;5.87;3.80;;;22.50;54.40;;;;;;5017981;28;20507;-87
2021/07/08 00:40:52;;;;;;;6.90;3.67;;;22.30;54.30;;;;;;5017417;28;20496;-87
2021/07/08 00:43:19;;;;;;;7.40;4.03;;;22.40;53.80;;;;;;5015944;28;21057;-87
2021/07/08 00:45:46;;;;;;;9.90;5.10;;;22.40;53.90;;;;;;5016382;28;21035;-87
2021/07/08 00:48:13;;;;;;;5.87;3.50;;;22.40;54.30;;;;;;5005688;28;20631;-87
2021/07/08 00:50:43;;;;;;;6.20;3.83;;;22.40;53.90;;;;;;5006576;28;20485;-87
2021/07/08 00:53:11;;;;;;;14.90;6.27;;;22.50;53.90;;;;;;5016785;28;20540;-87
2021/07/08 00:55:38;;;;;;;9.20;5.30;;;22.70;53.80;;;;;;5016714;28;20518;-87
2021/07/08 00:58:07;;;;;;;9.37;3.63;;;22.80;53.50;;;;;;5016141;28;20442;-87
2021/07/08 01:00:35;;;;;;;9.23;4.00;;;22.70;53.40;;;;;;5016966;28;20448;-87
2021/07/08 01:03:07;;;;;;;23.53;5.93;;;22.80;53.10;;;;;;5016787;28;20446;-87
2021/07/08 01:05:37;;;;;;;19.70;3.50;;;22.80;53.60;;;;;;5016949;28;20437;-87
2021/07/08 01:08:05;;;;;;;7.80;3.40;;;22.30;54.60;;;;;;5016142;28;20881;-87
2021/07/08 01:10:32;;;;;;;10.93;3.70;;;21.70;56.70;;;;;;5016290;28;20478;-87
2021/07/08 01:12:59;;;;;;;11.70;3.87;;;21.40;57.30;;;;;;5004512;28;20874;-87
2021/07/08 01:15:28;;;;;;;8.37;3.70;;;21.60;56.90;;;;;;5006900;28;20477;-87
2021/07/08 01:17:55;;;;;;;8.30;4.10;;;21.70;56.30;;;;;;5003572;28;20510;-87
2021/07/08 01:20:25;;;;;;;7.90;3.90;;;21.60;56.60;;;;;;4996271;28;20494;-87
2021/07/08 01:22:58;;;;;;;7.73;4.27;;;21.80;55.90;;;;;;4996286;28;20428;-87
2021/07/08 01:25:27;;;;;;;13.13;4.93;;;21.90;55.90;;;;;;4995622;28;20771;-88
2021/07/08 01:27:54;;;;;;;19.10;5.03;;;21.70;56.60;;;;;;5015387;28;20483;-87
2021/07/08 01:30:22;;;;;;;19.27;4.60;;;21.80;56.20;;;;;;5015448;28;20455;-87
2021/07/08 01:32:49;;;;;;;7.00;4.67;;;22.00;55.60;;;;;;5014782;28;20473;-87
2021/07/08 01:35:16;;;;;;;13.67;3.83;;;22.10;55.80;;;;;;5016029;28;20611;-87
2021/07/08 01:37:44;;;;;;;8.97;3.90;;;21.80;56.60;;;;;;5025367;28;20454;-87
2021/07/08 01:40:14;;;;;;;15.63;4.30;;;21.90;56.10;;;;;;5016359;28;20469;-87
2021/07/08 01:42:41;;;;;;;7.33;3.67;;;22.10;55.10;;;;;;5003666;28;20475;-87
2021/07/08 01:45:09;;;;;;;6.83;4.27;;;22.20;54.80;;;;;;5007998;28;20577;-87
2021/07/08 01:47:36;;;;;;;7.30;3.50;;;22.20;54.70;;;;;;5003232;28;20498;-87
2021/07/08 01:50:04;;;;;;;11.53;4.50;;;22.30;54.10;;;;;;4996719;28;20485;-87
2021/07/08 01:52:31;;;;;;;13.73;4.13;;;22.40;54.30;;;;;;5008244;28;20438;-87
2021/07/08 01:54:58;;;;;;;5.37;2.67;;;21.90;55.60;;;;;;5015766;28;20525;-87
2021/07/08 01:57:26;;;;;;;8.20;3.90;;;22.00;54.70;;;;;;5004462;28;21043;-88
2021/07/08 01:59:53;;;;;;;13.50;4.93;;;22.20;55.00;;;;;;5008003;28;20866;-87
2021/07/08 02:02:20;;;;;;;20.40;8.10;;;22.30;54.50;;;;;;5002900;28;20501;-87
2021/07/08 02:04:47;;;;;;;7.20;3.20;;;22.50;54.60;;;;;;4995262;28;20491;-87
2021/07/08 02:07:14;;;;;;;13.03;3.90;;;22.40;53.90;;;;;;4995729;28;20479;-87
2021/07/08 02:09:41;;;;;;;11.93;3.40;;;22.40;54.50;;;;;;4995497;28;20486;-87
2021/07/08 02:12:10;;;;;;;8.80;3.60;;;22.30;54.70;;;;;;4995277;28;20491;-87
2021/07/08 02:14:38;;;;;;;5.97;3.47;;;22.50;53.90;;;;;;4995074;28;20459;-87
2021/07/08 02:17:05;;;;;;;22.93;4.13;;;22.50;53.90;;;;;;5006061;28;20493;-88
2021/07/08 02:19:32;;;;;;;8.37;3.70;;;22.50;54.00;;;;;;5003120;28;20447;-88
2021/07/08 02:21:59;;;;;;;7.10;3.00;;;22.50;53.40;;;;;;4995467;28;21048;-87
2021/07/08 02:24:26;;;;;;;4.20;2.87;;;22.80;53.10;;;;;;4994596;28;20526;-87
2021/07/08 02:26:53;;;;;;;8.43;3.50;;;22.80;52.30;;;;;;4994635;28;20463;-88
2021/07/08 02:29:22;;;;;;;15.33;3.37;;;22.70;52.60;;;;;;4994905;28;20455;-88
2021/07/08 02:31:51;;;;;;;7.70;3.20;;;22.60;53.30;;;;;;4998984;28;20519;-87
2021/07/08 02:34:17;;;;;;;18.33;4.07;;;22.80;53.10;;;;;;5019354;28;20811;-87
2021/07/08 02:36:44;;;;;;;20.60;4.33;;;22.20;54.90;;;;;;5028657;28;20473;-87
2021/07/08 02:39:11;;;;;;;13.43;4.23;;;21.50;57.00;;;;;;5007232;28;20505;-87
2021/07/08 02:41:38;;;;;;;4.43;3.37;;;21.50;57.50;;;;;;4996983;28;20490;-88
2021/07/08 02:44:05;;;;;;;32.40;4.70;;;21.80;56.00;;;;;;4995587;28;20482;-87
2021/07/08 02:46:32;;;;;;;5.90;3.57;;;21.40;57.60;;;;;;5004709;28;20540;-87
2021/07/08 02:49:01;;;;;;;11.27;5.33;;;21.30;57.40;;;;;;5008119;28;20543;-87
2021/07/08 02:51:28;;;;;;;6.10;3.90;;;21.30;57.90;;;;;;4996394;28;20526;-87
2021/07/08 02:53:54;;;;;;;17.27;3.67;;;21.00;59.10;;;;;;4996178;28;20492;-87
2021/07/08 02:56:21;;;;;;;37.13;3.80;;;20.90;59.50;;;;;;5002104;28;20466;-87
2021/07/08 02:58:48;;;;;;;14.40;4.27;;;21.10;58.60;;;;;;5014689;28;20470;-87
2021/07/08 03:01:15;;;;;;;19.43;4.50;;;21.10;59.10;;;;;;5014962;28;20818;-87
2021/07/08 03:03:42;;;;;;;9.93;4.73;;;20.90;59.50;;;;;;5007936;28;20825;-87
2021/07/08 03:06:11;;;;;;;8.97;5.73;;;21.10;59.60;;;;;;4994190;28;20470;-88
2021/07/08 03:08:38;;;;;;;7.80;4.90;;;21.20;59.00;;;;;;4996225;28;20513;-88
2021/07/08 03:11:05;;;;;;;12.73;4.43;;;21.30;58.50;;;;;;4994632;28;20443;-87
2021/07/08 03:13:32;;;;;;;6.37;4.70;;;21.40;57.80;;;;;;5000291;28;20578;-87
2021/07/08 03:15:59;;;;;;;21.53;5.10;;;21.40;58.00;;;;;;5013431;28;20496;-87
2021/07/08 03:18:26;;;;;;;33.67;5.00;;;21.10;58.70;;;;;;5013657;28;20437;-87
2021/07/08 03:20:53;;;;;;;21.10;5.23;;;21.10;59.20;;;;;;5013672;28;20512;-88
2021/07/08 03:23:21;;;;;;;11.77;4.73;;;21.20;59.10;;;;;;5007698;28;20432;-87
2021/07/08 03:25:48;;;;;;;10.70;5.10;;;21.30;58.20;;;;;;4993373;28;20475;-88
2021/07/08 03:28:15;;;;;;;19.90;4.73;;;21.40;57.30;;;;;;4999263;28;20520;-87
2021/07/08 03:30:42;;;;;;;12.57;5.27;;;21.10;58.60;;;;;;5008063;28;20431;-87
2021/07/08 03:33:09;;;;;;;10.30;3.60;;;20.70;59.30;;;;;;4993914;28;20471;-87
2021/07/08 03:35:36;;;;;;;13.97;4.63;;;21.10;59.40;;;;;;4993722;28;20467;-87
2021/07/08 03:38:04;;;;;;;28.10;4.20;;;21.40;58.00;;;;;;4993964;28;20502;-87
2021/07/08 03:40:33;;;;;;;6.60;4.80;;;21.60;57.20;;;;;;4993540;28;20892;-87
2021/07/08 03:43:00;;;;;;;11.30;5.20;;;21.70;56.90;;;;;;4994031;28;20435;-87
2021/07/08 03:45:28;;;;;;;5.87;3.97;;;21.60;57.30;;;;;;4994585;28;20490;-87
2021/07/08 03:47:54;;;;;;;7.40;3.60;;;21.60;57.00;;;;;;4998972;28;21035;-87
2021/07/08 03:50:22;;;;;;;6.07;3.90;;;21.80;56.70;;;;;;5013928;28;20520;-87
2021/07/08 03:52:49;;;;;;;11.03;5.23;;;21.90;56.60;;;;;;5009570;28;20459;-87
2021/07/08 03:55:19;;;;;;;10.80;4.47;;;22.00;56.30;;;;;;4993416;28;20956;-87
2021/07/08 03:57:53;;;;;;;20.03;4.43;;;21.80;56.60;;;;;;4995274;28;20486;-87
2021/07/08 04:00:30;;;;;;;9.53;5.20;;;21.50;57.30;;;;;;4997374;28;20511;-87
2021/07/08 04:02:59;;;;;;;15.33;3.60;;;21.70;57.20;;;;;;4997035;28;20514;-87
2021/07/08 04:05:26;;;;;;;8.40;3.03;;;21.80;56.50;;;;;;4996296;28;20482;-86
2021/07/08 04:07:53;;;;;;;9.00;4.07;;;21.90;55.90;;;;;;4995370;28;20497;-86
2021/07/08 04:10:20;;;;;;;3.40;2.70;;;22.10;55.00;;;;;;4995383;28;20529;-86
2021/07/08 04:12:49;;;;;;;7.93;4.53;;;22.30;54.50;;;;;;4995419;28;20466;-86
2021/07/08 04:15:16;;;;;;;13.63;4.60;;;22.30;54.40;;;;;;4995249;28;20470;-86
2021/07/08 04:17:43;;;;;;;7.73;3.00;;;22.30;54.80;;;;;;4994721;28;20477;-86
2021/07/08 04:20:12;;;;;;;16.47;4.50;;;22.40;54.50;;;;;;4994326;28;20808;-87
2021/07/08 04:22:39;;;;;;;8.13;4.10;;;22.20;55.10;;;;;;4994483;28;20455;-87
2021/07/08 04:25:07;;;;;;;17.63;4.77;;;22.10;55.40;;;;;;4996938;28;20493;-87
2021/07/08 04:27:34;;;;;;;9.73;4.63;;;22.00;55.90;;;;;;4997920;28;20455;-87
2021/07/08 04:30:04;;;;;;;13.00;5.40;;;22.10;55.80;;;;;;4998115;28;20584;-86
2021/07/08 04:32:31;;;;;;;11.73;4.93;;;22.10;55.70;;;;;;4997364;28;20455;-86
2021/07/08 04:34:58;;;;;;;9.67;5.27;;;22.00;55.90;;;;;;4997062;28;20482;-86
2021/07/08 04:37:25;;;;;;;8.13;5.10;;;22.10;56.00;;;;;;4996925;28;20558;-86
2021/07/08 04:39:52;;;;;;;16.23;5.67;;;22.10;56.20;;;;;;4996949;28;20435;-86
2021/07/08 04:42:20;;;;;;;8.50;4.67;;;22.20;55.80;;;;;;4997106;28;20430;-86
2021/07/08 04:44:47;;;;;;;7.50;4.57;;;22.30;55.30;;;;;;4997207;28;20479;-86
2021/07/08 04:47:16;;;;;;;15.27;5.10;;;22.40;55.00;;;;;;4997385;28;20470;-86
2021/07/08 04:49:43;;;;;;;6.70;3.10;;;22.20;55.20;;;;;;4996707;28;20532;-85
2021/07/08 04:52:12;;;;;;;6.30;2.80;;;22.30;55.10;;;;;;4996618;28;20493;-85
2021/07/08 04:54:39;;;;;;;21.97;4.60;;;22.40;54.20;;;;;;4997093;28;20442;-86
2021/07/08 04:57:06;;;;;;;7.43;4.17;;;22.60;54.00;;;;;;4996712;28;20470;-86
2021/07/08 04:59:33;;;;;;;8.00;4.30;;;22.30;54.20;;;;;;4996707;28;20944;-85
2021/07/08 05:02:00;;;;;;;19.17;3.90;;;22.10;55.10;;;;;;4996231;28;20446;-85
2021/07/08 05:04:28;;;;;;;12.20;4.87;;;22.00;55.70;;;;;;4995692;28;20571;-85
2021/07/08 05:06:55;;;;;;;9.63;5.73;;;21.80;56.50;;;;;;4997285;28;20494;-85
2021/07/08 05:09:22;;;;;;;9.83;5.83;;;21.70;56.80;;;;;;4996975;28;20449;-85
2021/07/08 05:11:49;;;;;;;14.73;6.10;;;21.40;57.60;;;;;;4996726;28;20491;-85
2021/07/08 05:14:16;;;;;;;7.60;3.87;;;21.20;58.30;;;;;;4997226;28;20506;-85
2021/07/08 05:16:43;;;;;;;14.60;6.37;;;21.50;57.90;;;;;;4995965;28;20493;-85
2021/07/08 05:19:10;;;;;;;12.47;6.20;;;21.70;57.10;;;;;;4996100;28;20501;-85
2021/07/08 05:21:46;;;;;;;9.30;5.50;;;21.90;56.60;;;;;;4996205;28;20478;-85
2021/07/08 05:24:17;;;;;;;4.73;3.70;;;21.70;56.90;;;;;;4996083;28;20446;-85
2021/07/08 05:26:44;;;;;;;8.23;5.80;;;21.80;57.30;;;;;;4996483;28;20467;-86
2021/07/08 05:29:11;;;;;;;13.17;7.00;;;22.00;56.40;;;;;;4995978;28;20481;-86
2021/07/08 05:31:38;;;;;;;10.93;6.13;;;22.00;56.70;;;;;;4996000;28;20483;-86
2021/07/08 05:34:05;;;;;;;8.60;6.40;;;22.10;56.40;;;;;;4995940;28;20522;-86
2021/07/08 05:36:32;;;;;;;7.23;5.87;;;21.90;57.30;;;;;;4996037;28;20507;-86
2021/07/08 05:39:00;;;;;;;8.70;5.23;;;22.00;56.70;;;;;;4995628;28;20525;-86
2021/07/08 05:41:27;;;;;;;7.87;4.33;;;22.20;56.30;;;;;;4996165;28;20509;-86
2021/07/08 05:43:54;;;;;;;9.50;5.30;;;22.50;55.00;;;;;;4996207;28;20536;-86
2021/07/08 05:46:22;;;;;;;4.40;3.47;;;22.70;54.90;;;;;;4995346;28;20552;-86
2021/07/08 05:48:49;;;;;;;8.40;4.93;;;22.80;54.20;;;;;;4995609;28;20941;-86
2021/07/08 05:51:16;;;;;;;6.93;4.10;;;22.70;54.10;;;;;;4996017;28;20493;-86
2021/07/08 05:53:43;;;;;;;11.17;4.93;;;22.80;54.20;;;;;;4995538;28;20446;-86
2021/07/08 05:56:11;;;;;;;18.63;6.00;;;22.70;54.90;;;;;;4994962;28;20566;-86
2021/07/08 05:58:38;;;;;;;10.87;5.67;;;22.50;55.90;;;;;;5002993;28;20447;-86
2021/07/08 06:01:05;;;;;;;11.70;5.20;;;22.40;56.50;;;;;;5003904;28;20454;-86
2021/07/08 06:03:32;;;;;;;7.20;4.60;;;22.70;55.90;;;;;;4995981;28;20522;-86
2021/07/08 06:05:59;;;;;;;18.77;4.37;;;22.70;55.70;;;;;;4994896;28;20561;-86
2021/07/08 06:08:26;;;;;;;7.83;4.33;;;22.70;55.40;;;;;;4995291;28;20948;-85
2021/07/08 06:10:53;;;;;;;14.30;5.07;;;22.50;55.80;;;;;;4995775;28;20963;-86
2021/07/08 06:13:21;;;;;;;10.00;5.13;;;22.40;56.20;;;;;;4995339;28;20940;-85
2021/07/08 06:15:48;;;;;;;5.80;4.67;;;22.50;56.00;;;;;;4995507;28;20443;-86
2021/07/08 06:18:15;;;;;;;10.30;5.10;;;22.80;55.00;;;;;;4995546;28;20493;-86
2021/07/08 06:20:42;;;;;;;10.70;5.10;;;22.70;55.40;;;;;;4995120;28;20459;-86
2021/07/08 06:23:09;;;;;;;14.03;5.13;;;22.80;55.70;;;;;;5005067;28;20475;-86
2021/07/08 06:25:36;;;;;;;6.97;5.03;;;22.80;55.30;;;;;;5008343;28;20509;-86
2021/07/08 06:28:03;;;;;;;7.27;3.70;;;22.70;55.40;;;;;;5009052;28;20443;-85
2021/07/08 06:30:31;;;;;;;17.27;5.00;;;23.00;55.00;;;;;;5007655;28;20458;-85
2021/07/08 06:32:58;;;;;;;10.50;3.00;;;23.10;54.50;;;;;;5007599;28;20473;-86
2021/07/08 06:35:25;;;;;;;15.10;4.50;;;23.30;53.80;;;;;;5000729;28;20481;-85
2021/07/08 06:37:52;;;;;;;7.43;3.50;;;23.50;53.60;;;;;;4995997;28;20884;-86
2021/07/08 06:40:19;;;;;;;18.00;4.97;;;23.60;53.30;;;;;;4998331;28;20545;-86
2021/07/08 06:42:47;;;;;;;10.23;4.37;;;23.60;52.80;;;;;;5011087;28;20466;-85
2021/07/08 06:45:15;;;;;;;7.23;4.90;;;23.40;53.50;;;;;;5011611;28;20482;-86
2021/07/08 06:47:46;;;;;;;8.30;5.17;;;23.40;53.40;;;;;;4997035;28;20470;-85
2021/07/08 06:50:14;;;;;;;11.13;5.20;;;23.60;53.30;;;;;;4998649;28;20490;-86
2021/07/08 06:52:41;;;;;;;12.43;5.10;;;23.80;53.00;;;;;;4998262;28;20956;-85
2021/07/08 06:55:09;;;;;;;8.90;3.70;;;23.70;53.10;;;;;;4997034;28;20478;-85
2021/07/08 06:57:40;;;;;;;4.60;3.73;;;23.60;52.90;;;;;;4996536;28;21015;-86
2021/07/08 07:00:08;;;;;;;20.00;4.07;;;23.30;53.80;;;;;;4995784;28;20501;-85
2021/07/08 07:02:35;;;;;;;8.30;3.97;;;23.40;53.30;;;;;;4996239;28;20817;-86
2021/07/08 07:05:04;;;;;;;5.20;4.07;;;23.40;53.40;;;;;;4996046;28;20494;-86
2021/07/08 07:07:30;;;;;;;10.40;4.20;;;23.40;53.60;;;;;;4996703;28;20602;-86
2021/07/08 07:09:57;;;;;;;6.70;4.07;;;23.40;53.60;;;;;;4996622;28;20451;-86
2021/07/08 07:12:24;;;;;;;13.40;4.00;;;23.30;54.10;;;;;;4997028;28;20486;-85
2021/07/08 07:14:51;;;;;;;14.43;4.33;;;23.10;54.50;;;;;;4998779;28;20438;-86
2021/07/08 07:17:18;;;;;;;10.87;4.33;;;23.10;54.50;;;;;;4998673;28;20503;-86
2021/07/08 07:19:45;;;;;;;7.63;4.27;;;23.00;54.40;;;;;;4999741;28;20482;-86
2021/07/08 07:22:13;;;;;;;14.10;3.67;;;23.20;54.80;;;;;;5009024;28;20513;-85
2021/07/08 07:24:43;;;;;;;6.13;3.73;;;23.10;54.50;;;;;;5012583;28;20435;-86
2021/07/08 07:27:10;;;;;;;4.93;3.40;;;23.10;54.80;;;;;;5004376;28;20486;-86
2021/07/08 07:29:38;;;;;;;22.83;16.90;;;23.30;54.70;;;;;;5010076;28;20435;-86
2021/07/08 07:32:06;;;;;;;9.90;4.43;;;23.10;54.50;;;;;;5014851;28;20446;-87
2021/07/08 07:34:33;;;;;;;11.37;4.43;;;23.10;55.50;;;;;;5014053;28;20449;-86
2021/07/08 07:37:00;;;;;;;5.73;3.60;;;23.10;55.10;;;;;;5013859;28;20475;-85
2021/07/08 07:39:28;;;;;;;4.77;3.83;;;23.00;55.20;;;;;;5013937;28;20461;-85
2021/07/08 07:41:55;;;;;;;7.80;3.83;;;23.20;54.60;;;;;;5014027;28;20470;-85
2021/07/08 07:44:22;;;;;;;8.47;4.20;;;23.20;54.60;;;;;;5013464;28;20470;-86
2021/07/08 07:46:49;;;;;;;4.90;4.23;;;23.20;54.60;;;;;;5013378;28;20493;-85
2021/07/08 07:49:16;;;;;;;8.70;3.63;;;23.30;54.20;;;;;;5012386;28;20459;-85
2021/07/08 07:51:43;;;;;;;6.90;4.60;;;23.40;54.80;;;;;;5012270;28;20451;-85
2021/07/08 07:54:10;;;;;;;4.17;3.00;;;23.50;53.60;;;;;;5011838;28;20459;-85
2021/07/08 07:56:38;;;;;;;17.23;4.70;;;23.50;52.60;;;;;;5007675;28;20471;-85
2021/07/08 07:59:05;;;;;;;9.00;4.80;;;23.60;53.00;;;;;;4999164;28;20465;-85
2021/07/08 08:01:32;;;;;;;6.93;4.77;;;23.70;53.20;;;;;;4998035;28;20542;-86
2021/07/08 08:04:00;;;;;;;13.23;5.80;;;23.40;53.90;;;;;;4999446;28;20439;-86
2021/07/08 08:09:12;;;;;;;6.40;3.40;;;23.10;54.90;;;;;;4997821;28;20779;-86
2021/07/08 08:11:41;;;;;;;6.13;4.73;;;23.50;54.30;;;;;;4997683;28;20481;-86
2021/07/08 08:14:08;;;;;;;7.20;5.03;;;23.90;54.00;;;;;;4997843;28;20485;-86
2021/07/08 08:16:36;;;;;;;10.07;5.63;;;24.20;55.10;;;;;;4997825;28;20494;-86
2021/07/08 08:19:03;;;;;;;12.23;5.40;;;24.30;53.20;;;;;;4997742;28;20505;-86
2021/07/08 08:21:30;;;;;;;52.60;22.40;;;24.30;53.70;;;;;;4998400;28;20486;-86
2021/07/08 08:23:56;;;;;;;13.20;6.53;;;24.50;53.90;;;;;;4998263;28;20550;-86
2021/07/08 08:26:24;;;;;;;4.80;4.03;;;24.40;53.20;;;;;;4998137;28;21027;-86
2021/07/08 08:28:52;;;;;;;15.43;4.90;;;24.40;53.10;;;;;;4998158;28;20501;-86
2021/07/08 08:31:19;;;;;;;6.90;4.30;;;24.10;53.90;;;;;;4997835;28;20530;-86
2021/07/08 08:33:47;;;;;;;6.97;4.77;;;24.40;53.70;;;;;;4997975;28;20506;-86
2021/07/08 08:36:14;;;;;;;10.00;4.70;;;24.20;54.30;;;;;;4998049;28;20878;-85
2021/07/08 08:38:41;;;;;;;5.50;4.10;;;24.20;54.10;;;;;;4997286;28;20451;-86
2021/07/08 08:41:08;;;;;;;6.20;4.07;;;24.60;53.80;;;;;;4997885;28;20980;-86
2021/07/08 08:43:36;;;;;;;10.50;4.33;;;24.90;52.60;;;;;;4997769;28;20884;-86
2021/07/08 08:46:04;;;;;;;13.90;5.13;;;24.70;52.60;;;;;;4997557;28;20849;-86
2021/07/08 08:48:31;;;;;;;8.90;4.17;;;24.60;51.60;;;;;;4998233;28;20493;-86
2021/07/08 08:50:58;;;;;;;8.13;4.40;;;24.70;53.10;;;;;;4997431;28;20505;-86
2021/07/08 08:53:25;;;;;;;10.90;5.50;;;24.80;52.60;;;;;;4997697;28;20554;-86
2021/07/08 08:55:52;;;;;;;8.17;4.80;;;25.00;51.60;;;;;;4997232;28;20453;-86
2021/07/08 08:58:21;;;;;;;6.10;4.20;;;25.00;52.50;;;;;;4997623;28;20463;-86
2021/07/08 09:00:49;;;;;;;5.30;4.33;;;25.20;51.90;;;;;;4999312;28;20509;-86
2021/07/08 09:03:20;;;;;;;9.30;4.70;;;25.20;50.60;;;;;;4997596;28;20827;-86
2021/07/08 09:05:50;;;;;;;7.97;4.23;;;25.30;50.40;;;;;;5000801;28;20570;-86
2021/07/08 09:08:21;;;;;;;4.40;3.70;;;25.20;51.30;;;;;;5001038;28;20463;-86
2021/07/08 09:11:07;;;;;;;11.13;4.60;;;25.00;50.30;;;;;;4997164;28;20491;-86
2021/07/08 09:13:56;;;;;;;4.83;3.80;;;25.00;51.60;;;;;;4997229;28;20439;-86
2021/07/08 09:16:24;;;;;;;5.27;4.07;;;25.20;51.50;;;;;;4997149;28;20471;-86
2021/07/08 09:19:17;;;;;;;5.30;4.10;;;25.70;50.60;;;;;;4997258;28;21146;-86
2021/07/08 09:21:46;;;;;;;8.07;4.10;;;26.10;49.20;;;;;;4995993;28;20463;-86
2021/07/08 09:24:16;;;;;;;11.77;3.87;;;26.20;48.60;;;;;;4998119;28;20451;-86
2021/07/08 09:26:47;;;;;;;6.40;4.10;;;26.30;48.60;;;;;;4997275;28;21038;-86
2021/07/08 09:29:18;;;;;;;11.93;4.13;;;26.60;47.80;;;;;;4997345;28;20463;-86
2021/07/08 09:31:49;;;;;;;6.77;3.50;;;26.50;48.00;;;;;;4997174;28;20433;-86
2021/07/08 09:34:19;;;;;;;13.90;3.53;;;26.60;48.20;;;;;;4997324;28;20435;-86
2021/07/08 09:36:49;;;;;;;8.27;3.57;;;26.30;48.30;;;;;;4996809;28;20972;-86
2021/07/08 09:39:17;;;;;;;8.00;3.47;;;26.30;48.10;;;;;;4997428;28;20780;-86
2021/07/08 09:41:52;;;;;;;7.20;3.47;;;26.50;47.60;;;;;;4998132;28;20434;-86
2021/07/08 09:44:26;;;;;;;9.03;3.00;;;26.50;47.70;;;;;;4996901;28;20446;-86
2021/07/08 09:46:56;;;;;;;7.50;3.27;;;26.00;48.00;;;;;;4996977;28;21007;-86
2021/07/08 09:49:25;;;;;;;12.87;3.73;;;26.10;48.50;;;;;;4997188;28;20457;-86
2021/07/08 09:51:53;;;;;;;9.10;3.27;;;25.90;48.20;;;;;;4996764;28;20474;-86
2021/07/08 09:57:40;;;;;;;6.97;2.90;;;25.70;49.60;;;;;;5004479;23;20481;-85
2021/07/08 10:00:29;;;;;;;5.37;3.10;;;25.80;49.60;;;;;;5019684;28;20462;-84
2021/07/08 10:02:57;;;;;;;3.47;3.10;;;25.90;48.50;;;;;;5016714;28;20438;-85
2021/07/08 10:05:25;;;;;;;5.93;2.93;;;26.00;48.10;;;;;;5017287;28;20434;-84
2021/07/08 10:07:53;;;;;;;3.10;3.00;;;26.20;46.60;;;;;;5007241;28;20501;-84
2021/07/08 10:10:20;;;;;;;3.50;3.00;;;26.30;45.80;;;;;;4997476;28;20435;-84
2021/07/08 10:12:49;;;;;;;3.90;3.13;;;25.60;45.50;;;;;;4997148;28;20964;-84
2021/07/08 10:15:17;;;;;;;4.07;3.23;;;25.90;46.90;;;;;;4998154;28;20482;-84
2021/07/08 10:17:45;;;;;;;8.17;3.20;;;26.10;46.80;;;;;;4998777;28;21039;-84
2021/07/08 10:20:14;;;;;;;3.90;2.90;;;26.20;45.70;;;;;;4997142;28;20526;-84
2021/07/08 10:22:43;;;;;;;4.80;3.30;;;26.20;45.80;;;;;;4998032;28;20478;-83
2021/07/08 10:25:13;;;;;;;4.93;3.50;;;25.80;46.50;;;;;;4999199;28;20962;-83
2021/07/08 10:27:42;;;;;;;4.10;2.73;;;25.80;45.60;;;;;;4996956;28;20503;-84
2021/07/08 10:30:10;;;;;;;3.40;2.97;;;26.00;45.80;;;;;;4996219;28;20455;-84
2021/07/08 10:32:38;;;;;;;4.07;3.20;;;26.30;45.10;;;;;;4996433;28;20927;-84
2021/07/08 10:35:07;;;;;;;5.17;3.40;;;26.40;44.90;;;;;;4996232;28;20533;-84
2021/07/08 10:37:36;;;;;;;8.30;3.07;;;26.30;44.30;;;;;;4995837;28;20917;-84
2021/07/08 10:40:08;;;;;;;3.77;3.30;;;26.30;45.20;;;;;;4995943;28;20455;-84
2021/07/08 10:42:42;;;;;;;4.80;3.20;;;26.50;45.20;;;;;;4996250;28;20905;-84
2021/07/08 10:45:30;;;;;;;3.20;3.00;;;26.20;46.00;;;;;;4996372;28;20482;-84
2021/07/08 10:48:11;;;;;;;3.97;3.33;;;25.70;46.50;;;;;;4996409;28;20494;-85
2021/07/08 10:50:40;;;;;;;5.00;3.40;;;25.50;46.50;;;;;;4996969;28;20530;-84
2021/07/08 10:53:32;;;;;;;8.13;3.70;;;25.70;46.60;;;;;;4997118;28;20450;-84
2021/07/08 10:56:02;;;;;;;4.03;2.90;;;25.80;46.80;;;;;;4997368;28;20526;-84
2021/07/08 10:58:50;;;;;;;3.43;3.23;;;25.70;46.50;;;;;;4997288;28;20844;-84
2021/07/08 11:01:46;;;;;;;4.10;2.93;;;25.30;46.40;;;;;;5003277;28;20450;-84
2021/07/08 11:04:14;;;;;;;6.67;3.30;;;25.20;47.20;;;;;;4997684;28;20455;-84
2021/07/08 11:06:43;;;;;;;8.07;3.47;;;25.20;47.60;;;;;;4997312;28;20482;-85
2021/07/08 11:09:21;;;;;;;5.10;3.70;;;25.30;49.00;;;;;;4997772;28;20498;-84
2021/07/08 11:12:04;;;;;;;7.90;3.30;;;25.80;46.90;;;;;;4997010;28;20439;-84
2021/07/08 11:14:32;;;;;;;6.60;3.70;;;25.90;47.00;;;;;;4996895;28;20441;-84
2021/07/08 11:17:02;;;;;;;3.63;3.10;;;26.10;46.30;;;;;;4997630;28;20471;-84
2021/07/08 11:19:35;;;;;;;6.83;3.33;;;26.30;46.10;;;;;;4997360;28;20453;-83
2021/07/08 11:22:06;;;;;;;3.27;3.07;;;26.60;45.40;;;;;;4996374;28;20490;-84
2021/07/08 11:24:44;;;;;;;5.30;3.40;;;26.30;45.80;;;;;;4996417;28;20443;-84
2021/07/08 11:27:14;;;;;;;5.23;2.83;;;26.30;45.30;;;;;;4996273;28;20509;-84
2021/07/08 11:29:43;;;;;;;4.60;3.10;;;26.30;46.00;;;;;;4996953;28;20494;-85
2021/07/08 11:32:22;;;;;;;5.30;3.40;;;26.30;46.30;;;;;;4996193;28;20443;-84
2021/07/08 11:34:58;;;;;;;4.37;3.30;;;26.40;45.20;;;;;;4995146;28;20451;-84
2021/07/08 11:37:29;;;;;;;5.43;4.23;;;26.60;45.00;;;;;;4996525;28;20468;-84
2021/07/08 11:39:59;;;;;;;4.63;3.30;;;26.70;45.40;;;;;;4997276;28;20530;-83
2021/07/08 11:42:32;;;;;;;3.77;3.63;;;26.70;45.00;;;;;;4997064;28;20975;-83
2021/07/08 11:45:01;;;;;;;4.33;3.37;;;26.60;45.00;;;;;;4996412;28;20522;-84
2021/07/08 11:47:40;;;;;;;3.40;3.10;;;26.40;45.30;;;;;;4996498;28;20487;-84
2021/07/08 11:50:15;;;;;;;5.87;3.00;;;26.60;45.20;;;;;;4996687;28;20529;-84
2021/07/08 11:52:42;;;;;;;4.10;3.50;;;26.50;45.10;;;;;;4995735;28;20450;-84
2021/07/08 11:55:10;;;;;;;6.13;3.00;;;26.30;45.10;;;;;;4996241;28;20514;-84
2021/07/08 11:57:53;;;;;;;18.37;4.13;;;26.40;45.00;;;;;;4995534;28;20477;-84
2021/07/08 12:00:35;;;;;;;4.13;3.30;;;26.30;45.00;;;;;;4995544;28;20481;-84
2021/07/08 12:03:04;;;;;;;4.53;3.27;;;26.10;45.10;;;;;;4995488;28;20487;-84
2021/07/08 12:05:31;;;;;;;4.13;2.83;;;26.30;45.60;;;;;;4995372;28;20446;-84
2021/07/08 12:08:01;;;;;;;7.33;3.67;;;26.40;45.40;;;;;;4996860;28;20497;-85
2021/07/08 12:10:33;;;;;;;6.10;2.87;;;26.20;44.90;;;;;;4996253;28;20522;-84
2021/07/08 12:13:02;;;;;;;4.30;2.90;;;26.30;45.90;;;;;;4995282;28;20537;-84
2021/07/08 12:15:29;;;;;;;3.77;3.30;;;26.60;45.60;;;;;;4995215;28;20901;-84
2021/07/08 12:17:58;;;;;;;3.97;3.40;;;26.80;45.20;;;;;;4995884;28;20509;-84
2021/07/08 12:20:26;;;;;;;9.43;2.97;;;26.90;43.80;;;;;;4995955;28;20454;-84
2021/07/08 12:22:59;;;;;;;6.13;3.60;;;26.70;45.00;;;;;;4995380;28;20542;-84
2021/07/08 12:25:27;;;;;;;3.87;3.00;;;26.80;44.70;;;;;;4995717;28;20864;-84
2021/07/08 12:27:56;;;;;;;9.20;2.90;;;26.80;44.30;;;;;;4996612;28;20486;-82
2021/07/08 12:30:26;;;;;;;3.43;2.83;;;26.20;45.10;;;;;;4997622;28;20529;-83
2021/07/08 12:33:08;;;;;;;4.60;2.80;;;26.50;45.80;;;;;;4997505;28;20479;-82
2021/07/08 12:35:45;;;;;;;5.63;2.73;;;26.30;45.00;;;;;;4998140;28;20873;-82
2021/07/08 12:38:14;;;;;;;3.80;3.37;;;26.50;45.50;;;;;;4997956;28;20493;-82
2021/07/08 12:40:43;;;;;;;4.23;3.47;;;26.70;45.20;;;;;;4997397;28;20454;-83
2021/07/08 12:43:12;;;;;;;4.97;3.00;;;26.40;45.20;;;;;;4998625;28;20486;-83
2021/07/08 12:45:41;;;;;;;5.37;3.13;;;26.40;46.00;;;;;;5002391;28;20482;-83
2021/07/08 12:48:11;;;;;;;6.10;3.67;;;26.20;46.90;;;;;;5014717;28;20487;-83
2021/07/08 12:50:40;;;;;;;2.90;2.77;;;26.50;46.00;;;;;;5015635;28;20453;-83
2021/07/08 12:53:09;;;;;;;6.00;2.90;;;26.20;45.80;;;;;;5016364;28;20470;-83
2021/07/08 12:55:41;;;;;;;2.60;2.50;;;26.00;46.80;;;;;;5016059;28;20458;-83
2021/07/08 12:58:15;;;;;;;3.90;2.70;;;26.50;46.00;;;;;;5005538;28;20513;-84